createdAt,value
2023-01-26T00:01:29.860Z,98.98
2023-01-26T00:03:57.816Z,99.44
2023-01-26T00:06:24.959Z,97.81
2023-01-26T00:08:53.790Z,98.66
2023-01-26T00:11:29.243Z,98.75
2023-01-26T00:13:57.668Z,101.61
2023-01-26T00:16:25.211Z,93.65
2023-01-26T00:18:51.951Z,97.04
2023-01-26T00:21:21.065Z,88.51
2023-01-26T00:23:49.235Z,91.07
2023-01-26T00:26:18.897Z,87.26
2023-01-26T00:28:45.658Z,87.00
2023-01-26T00:31:15.948Z,86.41
2023-01-26T00:33:42.645Z,85.05
2023-01-26T00:36:09.807Z,81.19
2023-01-26T00:38:36.330Z,82.33
2023-01-26T00:41:03.058Z,81.90
2023-01-26T00:43:29.948Z,82.35
2023-01-26T00:45:56.757Z,80.65
2023-01-26T00:48:24.762Z,85.53
2023-01-26T00:50:52.904Z,83.47
2023-01-26T00:53:19.798Z,81.05
2023-01-26T00:55:46.437Z,82.19
2023-01-26T00:58:13.079Z,80.03
2023-01-26T01:00:39.984Z,77.12
2023-01-26T01:03:07.195Z,76.45
2023-01-26T01:05:34.843Z,74.64
2023-01-26T01:08:01.941Z,74.83
2023-01-26T01:10:28.893Z,75.56
2023-01-26T01:12:56.625Z,73.23
2023-01-26T01:15:24.002Z,75.47
2023-01-26T01:17:50.663Z,74.44
2023-01-26T01:20:17.403Z,73.93
2023-01-26T01:22:44.201Z,70.74
2023-01-26T01:25:10.791Z,68.31
2023-01-26T01:27:37.301Z,67.46
2023-01-26T01:30:07.862Z,65.89
2023-01-26T01:32:39.710Z,65.40
2023-01-26T01:35:07.233Z,64.54
2023-01-26T01:37:34.099Z,64.47
2023-01-26T01:40:00.754Z,62.91
2023-01-26T01:42:27.979Z,63.47
2023-01-26T01:45:32.754Z,62.56
2023-01-26T01:48:05.167Z,59.47
2023-01-26T01:50:39.155Z,60.22
2023-01-26T01:53:12.927Z,62.57
2023-01-26T01:55:39.570Z,58.15
2023-01-26T01:58:08.089Z,61.31
2023-01-26T02:00:34.795Z,59.41
2023-01-26T02:03:14.431Z,58.68
2023-01-26T02:06:03.620Z,64.56
2023-01-26T02:08:38.486Z,62.12
2023-01-26T02:11:13.900Z,61.82
2023-01-26T02:13:44.952Z,61.19
2023-01-26T02:16:11.934Z,60.30
2023-01-26T02:18:38.676Z,59.23
2023-01-26T02:21:13.851Z,60.05
2023-01-26T02:24:10.656Z,59.83
2023-01-26T02:26:38.284Z,62.28
2023-01-26T02:29:09.755Z,56.48
2023-01-26T02:31:38.203Z,58.03
2023-01-26T02:34:04.868Z,56.98
2023-01-26T02:36:33.749Z,60.72
2023-01-26T02:39:11.866Z,59.63
2023-01-26T02:41:58.569Z,57.30
2023-01-26T02:44:27.351Z,57.28
2023-01-26T02:46:53.972Z,59.58
2023-01-26T02:49:49.964Z,59.08
2023-01-26T02:52:23.851Z,58.32
2023-01-26T02:55:08.826Z,58.98
2023-01-26T02:57:36.060Z,61.50
2023-01-26T03:00:09.551Z,59.29
2023-01-26T03:02:36.293Z,57.19
2023-01-26T03:05:04.703Z,60.78
2023-01-26T03:07:31.994Z,61.39
2023-01-26T03:10:01.409Z,59.00
2023-01-26T03:12:27.998Z,59.35
2023-01-26T03:15:14.500Z,61.64
2023-01-26T03:17:41.064Z,59.37
2023-01-26T03:20:27.825Z,61.43
2023-01-26T03:23:12.723Z,58.09
2023-01-26T03:25:57.700Z,57.70
2023-01-26T03:28:24.597Z,56.48
2023-01-26T03:30:54.006Z,58.03
2023-01-26T03:33:20.627Z,57.93
2023-01-26T03:35:47.596Z,59.22
2023-01-26T03:38:14.107Z,59.07
2023-01-26T03:40:59.388Z,58.42
2023-01-26T03:43:44.325Z,52.66
2023-01-26T03:46:29.112Z,51.22
2023-01-26T03:49:14.188Z,51.00
2023-01-26T03:51:59.220Z,49.55
2023-01-26T03:54:44.083Z,49.88
2023-01-26T03:57:10.648Z,48.04
2023-01-26T03:59:40.159Z,48.53
2023-01-26T04:02:31.439Z,48.76
2023-01-26T04:05:16.645Z,47.70
2023-01-26T04:08:01.687Z,48.37
2023-01-26T04:10:28.328Z,46.35
2023-01-26T04:13:13.597Z,45.38
2023-01-26T04:15:58.340Z,48.07
2023-01-26T04:18:43.392Z,44.53
2023-01-26T04:21:48.536Z,48.65
2023-01-26T04:24:17.149Z,48.66
2023-01-26T04:26:44.723Z,47.31
2023-01-26T04:29:14.053Z,46.92
2023-01-26T04:31:42.183Z,48.91
2023-01-26T04:34:14.552Z,46.64
2023-01-26T04:36:42.719Z,45.30
2023-01-26T04:39:09.910Z,44.67
2023-01-26T04:41:36.478Z,46.25
2023-01-26T04:44:03.117Z,44.23
2023-01-26T04:46:29.854Z,45.15
2023-01-26T04:48:56.452Z,42.17
2023-01-26T04:51:23.144Z,43.13
2023-01-26T04:53:50.313Z,47.37
2023-01-26T04:56:29.256Z,47.80
2023-01-26T04:58:58.065Z,45.84
2023-01-26T05:01:25.000Z,43.22
2023-01-26T05:03:51.724Z,44.56
2023-01-26T05:06:18.869Z,43.65
2023-01-26T05:08:45.483Z,46.59
2023-01-26T05:11:12.168Z,45.58
2023-01-26T05:13:39.573Z,43.66
2023-01-26T05:16:07.837Z,46.42
2023-01-26T05:18:34.465Z,46.09
2023-01-26T05:21:01.023Z,45.16
2023-01-26T05:23:27.539Z,43.19
2023-01-26T05:25:54.065Z,44.06
2023-01-26T05:28:20.592Z,42.43
2023-01-26T05:30:47.822Z,43.17
2023-01-26T05:33:14.907Z,43.87
2023-01-26T05:35:41.647Z,43.39
2023-01-26T05:38:08.706Z,44.96
2023-01-26T05:40:35.324Z,44.51
2023-01-26T05:43:01.828Z,44.12
2023-01-26T05:45:28.437Z,43.45
2023-01-26T05:47:54.960Z,40.33
2023-01-26T05:50:21.577Z,43.74
2023-01-26T05:52:48.237Z,42.79
2023-01-26T05:55:14.802Z,41.87
2023-01-26T05:57:41.372Z,42.31
2023-01-26T06:00:10.202Z,43.40
2023-01-26T06:02:36.993Z,42.82
2023-01-26T06:05:04.659Z,42.57
2023-01-26T06:07:32.390Z,44.37
2023-01-26T06:09:58.931Z,44.77
2023-01-26T06:12:25.584Z,44.97
2023-01-26T06:14:52.135Z,41.68
2023-01-26T06:17:18.849Z,43.65
2023-01-26T06:19:45.412Z,44.64
2023-01-26T06:22:13.943Z,41.86
2023-01-26T06:24:40.472Z,40.46
2023-01-26T06:27:12.163Z,42.79
2023-01-26T06:29:38.689Z,42.71
2023-01-26T06:32:05.848Z,41.31
2023-01-26T06:34:33.625Z,44.01
2023-01-26T06:37:00.160Z,43.09
2023-01-26T06:39:26.741Z,42.05
2023-01-26T06:41:53.247Z,42.19
2023-01-26T06:44:19.806Z,42.54
2023-01-26T06:46:46.357Z,42.15
2023-01-26T06:49:13.494Z,41.80
2023-01-26T06:51:45.891Z,42.42
2023-01-26T06:54:14.194Z,39.95
2023-01-26T06:56:40.990Z,42.55
2023-01-26T06:59:09.753Z,40.90
2023-01-26T07:01:47.363Z,41.69
2023-01-26T07:04:14.014Z,42.01
2023-01-26T07:06:40.556Z,43.15
2023-01-26T07:09:07.730Z,42.40
2023-01-26T07:11:34.288Z,42.71
2023-01-26T07:14:00.940Z,43.54
2023-01-26T07:16:27.591Z,43.34
2023-01-26T07:18:57.260Z,43.94
2023-01-26T07:21:24.161Z,41.34
2023-01-26T07:23:52.423Z,40.90
2023-01-26T07:26:19.634Z,40.81
2023-01-26T07:28:46.344Z,39.75
2023-01-26T07:31:13.860Z,43.39
2023-01-26T07:33:40.650Z,40.14
2023-01-26T07:36:07.395Z,43.96
2023-01-26T07:38:34.683Z,38.63
2023-01-26T07:41:11.250Z,38.05
2023-01-26T07:43:39.111Z,37.13
2023-01-26T07:46:06.469Z,38.14
2023-01-26T07:48:34.249Z,39.59
2023-01-26T07:51:03.725Z,41.01
2023-01-26T07:53:34.037Z,40.74
2023-01-26T07:56:12.408Z,42.77
2023-01-26T07:58:39.138Z,39.67
2023-01-26T08:01:09.167Z,40.28
2023-01-26T08:03:36.513Z,40.81
2023-01-26T08:06:03.977Z,40.52
2023-01-26T08:08:31.171Z,38.92
2023-01-26T08:11:02.328Z,43.17
2023-01-26T08:13:35.849Z,44.60
2023-01-26T08:16:12.355Z,44.58
2023-01-26T08:18:41.250Z,41.75
2023-01-26T08:21:07.989Z,42.89
2023-01-26T08:23:34.585Z,44.36
2023-01-26T08:26:06.716Z,40.29
2023-01-26T08:28:34.854Z,39.50
2023-01-26T08:31:19.996Z,42.75
2023-01-26T08:33:50.638Z,39.74
2023-01-26T08:36:21.974Z,37.92
2023-01-26T08:38:49.137Z,37.98
2023-01-26T08:41:15.747Z,39.67
2023-01-26T08:43:42.643Z,37.77
2023-01-26T08:46:10.064Z,37.08
2023-01-26T08:48:40.108Z,36.74
2023-01-26T08:51:08.556Z,36.26
2023-01-26T08:53:37.208Z,36.30
2023-01-26T08:56:10.257Z,36.86
2023-01-26T08:58:36.905Z,36.75
2023-01-26T09:01:08.170Z,34.86
2023-01-26T09:03:34.786Z,34.29
2023-01-26T09:06:04.424Z,32.66
2023-01-26T09:08:34.446Z,33.71
2023-01-26T09:11:01.297Z,34.56
2023-01-26T09:13:27.922Z,34.37
2023-01-26T09:15:54.491Z,35.24
2023-01-26T09:18:21.085Z,35.00
2023-01-26T09:20:47.947Z,31.85
2023-01-26T09:23:16.830Z,30.85
2023-01-26T09:25:44.120Z,27.27
2023-01-26T09:28:10.695Z,27.17
2023-01-26T09:30:59.070Z,27.07
2023-01-26T09:33:26.740Z,27.32
2023-01-26T09:35:53.442Z,25.52
2023-01-26T09:38:19.967Z,25.10
2023-01-26T09:40:58.402Z,24.18
2023-01-26T09:43:50.359Z,22.58
2023-01-26T09:46:40.503Z,23.43
2023-01-26T09:49:36.326Z,21.89
2023-01-26T09:52:30.027Z,21.59
2023-01-26T09:55:00.747Z,20.18
2023-01-26T09:57:37.943Z,22.11
2023-01-26T10:00:25.063Z,20.08
2023-01-26T10:03:19.738Z,17.43
2023-01-26T10:05:57.065Z,16.00
2023-01-26T10:08:23.772Z,14.84
2023-01-26T10:10:59.584Z,12.46
2023-01-26T10:13:27.085Z,12.49
2023-01-26T10:16:01.878Z,11.58
2023-01-26T10:18:35.877Z,11.32
2023-01-26T10:21:07.394Z,11.05
2023-01-26T10:23:36.043Z,9.36
2023-01-26T10:26:18.532Z,9.35
2023-01-26T10:28:48.555Z,10.14
2023-01-26T10:31:28.126Z,10.51
2023-01-26T10:33:58.661Z,8.82
2023-01-26T10:36:29.186Z,8.68
2023-01-26T10:39:07.604Z,9.35
2023-01-26T10:41:34.235Z,9.58
2023-01-26T10:44:09.698Z,8.93
2023-01-26T10:46:38.782Z,8.61
2023-01-26T10:49:08.142Z,9.28
2023-01-26T10:51:37.047Z,9.49
2023-01-26T10:54:20.057Z,10.26
2023-01-26T10:57:02.228Z,9.36
2023-01-26T10:59:33.390Z,7.93
2023-01-26T11:02:21.598Z,9.38
2023-01-26T11:05:06.815Z,9.31
2023-01-26T11:07:34.837Z,10.64
2023-01-26T11:10:22.740Z,8.27
2023-01-26T11:12:51.493Z,8.56
2023-01-26T11:15:23.749Z,9.61
2023-01-26T11:18:23.286Z,8.49
2023-01-26T11:21:08.359Z,8.61
2023-01-26T11:23:44.135Z,8.94
2023-01-26T11:26:52.269Z,9.61
2023-01-26T11:29:53.999Z,10.34
2023-01-26T11:32:46.891Z,10.06
2023-01-26T11:35:32.037Z,8.53
2023-01-26T11:38:21.747Z,8.87
2023-01-26T11:41:24.256Z,8.27
2023-01-26T11:44:21.557Z,9.44
2023-01-26T11:47:09.427Z,8.91
2023-01-26T11:50:03.685Z,9.45
2023-01-26T11:52:54.742Z,8.97
2023-01-26T11:56:06.210Z,8.65
2023-01-26T11:58:36.839Z,8.85
2023-01-26T12:01:10.190Z,8.46
2023-01-26T12:03:52.548Z,8.63
2023-01-26T12:06:30.646Z,9.90
2023-01-26T12:09:10.467Z,8.81
2023-01-26T12:11:49.961Z,8.41
2023-01-26T12:14:25.563Z,8.52
2023-01-26T12:17:24.242Z,8.07
2023-01-26T12:20:21.271Z,8.05
2023-01-26T12:23:20.301Z,7.78
2023-01-26T12:25:52.816Z,8.89
2023-01-26T12:28:34.701Z,7.26
2023-01-26T12:31:23.734Z,8.13
2023-01-26T12:33:54.995Z,7.75
2023-01-26T12:37:10.251Z,8.40
2023-01-26T12:39:45.549Z,8.42
2023-01-26T12:42:52.015Z,9.05
2023-01-26T12:45:27.174Z,7.71
2023-01-26T12:48:05.703Z,8.43
2023-01-26T12:50:53.518Z,8.31
2023-01-26T12:53:32.262Z,7.97
2023-01-26T12:56:16.884Z,7.50
2023-01-26T12:58:49.532Z,8.56
2023-01-26T13:01:23.457Z,7.36
2023-01-26T13:03:57.831Z,7.90
2023-01-26T13:06:28.920Z,7.57
2023-01-26T13:09:19.515Z,6.45
2023-01-26T13:11:59.796Z,7.76
2023-01-26T13:14:32.249Z,5.84
2023-01-26T13:17:23.203Z,6.24
2023-01-26T13:19:59.529Z,6.71
2023-01-26T13:22:25.962Z,7.61
2023-01-26T13:24:55.416Z,7.48
2023-01-26T13:27:40.645Z,5.86
2023-01-26T13:30:22.350Z,6.47
2023-01-26T13:32:51.917Z,7.01
2023-01-26T13:35:24.981Z,8.31
2023-01-26T13:38:14.404Z,7.25
2023-01-26T13:40:50.361Z,7.88
2023-01-26T13:43:42.200Z,7.30
2023-01-26T13:46:22.007Z,8.05
2023-01-26T13:48:53.055Z,7.38
2023-01-26T13:51:28.602Z,7.41
2023-01-26T13:54:06.337Z,7.27
2023-01-26T13:56:34.141Z,7.60
2023-01-26T13:59:09.336Z,7.45
2023-01-26T14:01:45.349Z,7.35
2023-01-26T14:04:20.102Z,7.81
2023-01-26T14:06:54.829Z,13.70
2023-01-26T14:09:22.181Z,3.51
2023-01-26T14:11:58.708Z,5.15
2023-01-26T14:14:33.473Z,4.71
2023-01-26T14:17:01.546Z,4.43
2023-01-26T14:19:29.270Z,5.77
2023-01-26T14:22:00.927Z,5.44
2023-01-26T14:24:41.029Z,7.26
2023-01-26T14:27:30.806Z,6.52
2023-01-26T14:29:58.370Z,6.47
2023-01-26T14:32:29.309Z,6.85
2023-01-26T14:34:59.299Z,5.85
2023-01-26T14:37:27.192Z,5.63
2023-01-26T14:40:21.955Z,6.22
2023-01-26T14:42:52.400Z,5.62
2023-01-26T14:45:31.221Z,6.53
2023-01-26T14:48:05.343Z,7.27
2023-01-26T14:50:32.293Z,6.82
2023-01-26T14:53:02.172Z,6.58
2023-01-26T14:55:34.317Z,6.93
2023-01-26T14:58:04.271Z,5.73
2023-01-26T15:00:35.430Z,6.09
2023-01-26T15:03:12.954Z,6.22
2023-01-26T15:05:43.385Z,5.89
2023-01-26T15:08:22.311Z,6.75
2023-01-26T15:11:17.190Z,6.37
2023-01-26T15:13:53.446Z,6.48
2023-01-26T15:16:23.045Z,5.31
2023-01-26T15:19:06.780Z,4.90
2023-01-26T15:21:43.732Z,5.29
2023-01-26T15:24:14.888Z,5.18
2023-01-26T15:26:42.859Z,5.80
2023-01-26T15:29:32.301Z,5.73
2023-01-26T15:31:59.895Z,5.70
2023-01-26T15:34:38.347Z,5.45
2023-01-26T15:37:32.518Z,6.35
2023-01-26T15:39:59.392Z,6.29
2023-01-26T15:42:30.028Z,6.35
2023-01-26T15:44:56.704Z,6.00
2023-01-26T15:47:23.518Z,5.54
2023-01-26T15:49:50.481Z,5.71
2023-01-26T15:52:25.470Z,5.83
2023-01-26T15:54:52.441Z,6.00
2023-01-26T15:57:19.441Z,5.58
2023-01-26T15:59:46.064Z,6.52
2023-01-26T16:02:16.401Z,7.41
2023-01-26T16:04:43.399Z,5.91
2023-01-26T16:07:15.526Z,7.09
2023-01-26T16:09:43.016Z,4.79
2023-01-26T16:12:30.555Z,4.22
2023-01-26T16:14:57.797Z,3.72
2023-01-26T16:17:24.397Z,4.34
2023-01-26T16:19:50.972Z,4.90
2023-01-26T16:22:17.568Z,3.54
2023-01-26T16:24:44.117Z,3.89
2023-01-26T16:27:10.847Z,3.96
2023-01-26T16:29:37.532Z,4.12
2023-01-26T16:32:26.271Z,4.34
2023-01-26T16:34:53.051Z,4.92
2023-01-26T16:37:19.662Z,3.58
2023-01-26T16:39:46.264Z,4.12
2023-01-26T16:42:19.246Z,4.44
2023-01-26T16:44:46.577Z,3.81
2023-01-26T16:47:13.106Z,3.96
2023-01-26T16:49:39.722Z,4.71
2023-01-26T16:52:08.633Z,4.59
2023-01-26T16:54:35.561Z,4.71
2023-01-26T16:57:02.151Z,5.39
2023-01-26T16:59:28.660Z,4.36
2023-01-26T17:01:55.437Z,5.08
2023-01-26T17:04:21.980Z,3.96
2023-01-26T17:06:48.828Z,4.64
2023-01-26T17:09:15.514Z,5.62
2023-01-26T17:11:42.046Z,5.67
2023-01-26T17:14:11.297Z,5.34
2023-01-26T17:16:38.135Z,6.19
2023-01-26T17:19:05.486Z,5.95
2023-01-26T17:21:33.189Z,6.09
2023-01-26T17:23:59.814Z,7.01
2023-01-26T17:26:26.411Z,6.05
2023-01-26T17:28:55.439Z,5.47
2023-01-26T17:31:23.568Z,5.85
2023-01-26T17:33:51.407Z,6.60
2023-01-26T17:36:19.155Z,7.01
2023-01-26T17:38:47.796Z,6.19
2023-01-26T17:41:14.466Z,5.69
2023-01-26T17:43:41.053Z,5.49
2023-01-26T17:46:12.852Z,6.45
2023-01-26T17:48:40.384Z,5.34
2023-01-26T17:51:14.044Z,5.19
2023-01-26T17:53:43.076Z,5.67
2023-01-26T17:56:13.097Z,5.84
2023-01-26T17:58:40.026Z,6.27
2023-01-26T18:01:09.991Z,5.89
2023-01-26T18:03:41.656Z,7.06
2023-01-26T18:06:08.559Z,6.67
2023-01-26T18:08:36.949Z,7.70
2023-01-26T18:11:06.193Z,6.41
2023-01-26T18:13:33.344Z,5.15
2023-01-26T18:16:00.238Z,6.20
2023-01-26T18:18:29.213Z,5.43
2023-01-26T18:20:56.753Z,7.35
2023-01-26T18:23:24.520Z,6.79
2023-01-26T18:25:51.658Z,5.26
2023-01-26T18:28:18.351Z,5.51
2023-01-26T18:30:44.984Z,5.42
2023-01-26T18:33:11.522Z,5.03
2023-01-26T18:35:38.072Z,5.38
2023-01-26T18:38:04.718Z,5.52
2023-01-26T18:40:31.223Z,5.53
2023-01-26T18:42:57.892Z,6.70
2023-01-26T18:45:24.743Z,6.56
2023-01-26T18:47:51.255Z,5.40
2023-01-26T18:50:18.018Z,5.45
2023-01-26T18:52:44.664Z,5.85
2023-01-26T18:55:11.689Z,5.33
2023-01-26T18:57:38.700Z,6.31
2023-01-26T19:00:08.147Z,6.72
2023-01-26T19:02:38.681Z,7.10
2023-01-26T19:05:09.368Z,6.89
2023-01-26T19:07:35.979Z,6.65
2023-01-26T19:10:04.818Z,6.41
2023-01-26T19:12:31.752Z,6.43
2023-01-26T19:14:58.301Z,6.88
2023-01-26T19:17:24.874Z,6.94
2023-01-26T19:19:51.572Z,6.52
2023-01-26T19:22:18.151Z,7.30
2023-01-26T19:24:44.950Z,6.12
2023-01-26T19:27:11.570Z,6.51
2023-01-26T19:29:38.110Z,6.86
2023-01-26T19:32:04.926Z,7.81
2023-01-26T19:34:33.636Z,7.70
2023-01-26T19:37:00.269Z,7.84
2023-01-26T19:39:26.803Z,7.69
2023-01-26T19:41:53.725Z,6.94
2023-01-26T19:44:20.308Z,8.42
2023-01-26T19:46:51.405Z,6.57
2023-01-26T19:49:18.055Z,8.69
2023-01-26T19:51:44.617Z,6.44
2023-01-26T19:54:11.270Z,6.71
2023-01-26T19:56:37.877Z,6.72
2023-01-26T19:59:07.883Z,7.16
2023-01-26T20:01:34.723Z,7.26
2023-01-26T20:04:14.219Z,8.40
2023-01-26T20:06:41.011Z,7.55
2023-01-26T20:09:08.970Z,7.13
2023-01-26T20:11:35.573Z,8.59
2023-01-26T20:14:08.836Z,7.44
2023-01-26T20:16:35.915Z,6.78
2023-01-26T20:19:03.599Z,6.73
2023-01-26T20:21:31.092Z,6.17
2023-01-26T20:23:58.056Z,7.28
2023-01-26T20:26:26.711Z,7.49
2023-01-26T20:28:56.875Z,7.23
2023-01-26T20:31:26.080Z,7.35
2023-01-26T20:33:53.768Z,8.08
2023-01-26T20:36:23.761Z,6.62
2023-01-26T20:38:50.714Z,7.07
2023-01-26T20:41:24.216Z,7.72
2023-01-26T20:43:59.858Z,8.11
2023-01-26T20:46:30.437Z,8.33
2023-01-26T20:48:57.185Z,8.15
2023-01-26T20:51:29.369Z,8.84
2023-01-26T20:53:57.427Z,8.58
2023-01-26T20:56:24.003Z,8.34
2023-01-26T20:58:53.314Z,7.59
2023-01-26T21:01:21.151Z,7.38
2023-01-26T21:03:48.445Z,6.69
2023-01-26T21:06:18.989Z,7.06
2023-01-26T21:08:47.279Z,8.07
2023-01-26T21:11:16.758Z,7.51
2023-01-26T21:13:43.945Z,7.34
2023-01-26T21:16:14.012Z,7.02
2023-01-26T21:18:41.228Z,7.61
2023-01-26T21:21:12.128Z,6.75
2023-01-26T21:23:38.945Z,7.09
2023-01-26T21:26:13.752Z,7.52
2023-01-26T21:28:40.299Z,7.94
2023-01-26T21:31:10.383Z,8.73
2023-01-26T21:33:39.986Z,8.12
2023-01-26T21:36:07.991Z,8.18
2023-01-26T21:38:38.132Z,7.82
2023-01-26T21:41:40.541Z,7.44
2023-01-26T21:44:11.641Z,7.74
2023-01-26T21:46:38.361Z,9.31
2023-01-26T21:49:06.434Z,9.88
2023-01-26T21:52:02.396Z,9.19
2023-01-26T21:54:30.018Z,8.16
2023-01-26T21:56:57.987Z,8.54
2023-01-26T21:59:24.655Z,8.35
2023-01-26T22:01:54.810Z,7.49
2023-01-26T22:04:30.252Z,7.69
2023-01-26T22:06:57.278Z,7.70
2023-01-26T22:09:24.293Z,8.34
2023-01-26T22:11:51.678Z,8.22
2023-01-26T22:14:25.967Z,7.88
2023-01-26T22:16:53.348Z,8.44
2023-01-26T22:19:20.025Z,8.53
2023-01-26T22:21:47.134Z,8.13
2023-01-26T22:24:14.629Z,9.31
2023-01-26T22:26:42.275Z,7.80
2023-01-26T22:29:11.112Z,8.14
2023-01-26T22:31:37.831Z,7.38
2023-01-26T22:34:05.137Z,7.76
2023-01-26T22:36:32.040Z,7.69
2023-01-26T22:38:59.753Z,6.98
2023-01-26T22:41:29.971Z,8.23
2023-01-26T22:43:58.927Z,8.15
2023-01-26T22:46:27.494Z,7.22
2023-01-26T22:48:57.249Z,6.94
2023-01-26T22:51:30.025Z,6.81
2023-01-26T22:53:58.072Z,6.16
2023-01-26T22:56:25.766Z,6.40
2023-01-26T22:58:58.465Z,6.45
2023-01-26T23:01:31.654Z,6.12
2023-01-26T23:03:59.465Z,6.32
2023-01-26T23:06:26.651Z,6.05
2023-01-26T23:08:53.523Z,6.70
2023-01-26T23:11:25.789Z,6.02
2023-01-26T23:13:54.510Z,6.57
2023-01-26T23:16:23.370Z,6.15
2023-01-26T23:18:51.133Z,6.26
2023-01-26T23:21:17.971Z,6.62
2023-01-26T23:23:44.585Z,5.94
2023-01-26T23:26:11.206Z,7.03
2023-01-26T23:28:41.339Z,6.77
2023-01-26T23:31:09.536Z,6.48
2023-01-26T23:33:36.791Z,6.63
2023-01-26T23:36:05.116Z,6.08
2023-01-26T23:38:32.732Z,6.08
2023-01-26T23:41:02.877Z,6.15
2023-01-26T23:43:29.457Z,5.76
2023-01-26T23:45:56.801Z,5.38
2023-01-26T23:48:24.731Z,5.05
2023-01-26T23:51:02.979Z,4.54
2023-01-26T23:53:31.017Z,4.97
2023-01-26T23:56:00.465Z,5.20
2023-01-26T23:58:27.053Z,4.98
